Terminal Aerodrome Forecast
Issued by NWS Shreveport, LA

Home | Current Version | Previous Version | Text Only | Print | Product List | Glossary On
Versions: 1 2 3 4 5 6 7 8 9 10 11 12 13 14 15 16 17 18 19 20 21 22 23 24 25
000
FTUS44 KSHV 211731
TAFTYR
TAF
KTYR 211731Z 2118/2218 32006KT P6SM SCT020
      TEMPO 2118/2120 BKN015
     FM220000 33004KT P6SM SKC
      TEMPO 2210/2212 BKN020=

USA.gov is the U.S. government's official web portal to all federal, state and local government web resources and services.